Afric Star — A8KJ8 — position and weather

sailwx.info

Track history (hours):
 
Tides and Currents Weather Stations Pressure Air Temp Water Temp Dewpoint Dewpoint Depression Visibility Wind Speed Wind Dir Waves Ship Positions

Afric Star

Last reported at 2014-Nov-22 09:21 UTC. Time now 2014-Nov-22 09:53 UTC.
Position N 36°31' E 014°59'.

Length 158 m; draft 7.9 m.

Type: Cargo ship. MMSI: 636013069.

Date/timePositionNaut miles runAvg speedWind from/ knotsBaromVisibWave heightAir tempDewpointWater temp
2014-Nov-22 09:21N 36°31' E 014°59'1315.1
2014-Nov-22 08:31N 36°28' E 014°44'1515.3
2014-Nov-22 07:33N 36°30' E 014°26'1515.5
2014-Nov-22 06:33N 36°33' E 014°07'1515.4
2014-Nov-22 05:34N 36°37' E 013°49'1615.5
2014-Nov-22 04:32N 36°42' E 013°29'15215.2
2014-Nov-21 18:33N 37°30' E 010°29'1615.9
2014-Nov-21 17:32N 37°33' E 010°10'1616.2
2014-Nov-21 16:33N 37°31' E 009°49'1616.2
2014-Nov-21 15:33N 37°27' E 009°29'1615.9
2014-Nov-21 14:32N 37°24' E 009°10'1915.8
2014-Nov-21 13:22N 37°20' E 008°47'1315.9
2014-Nov-21 12:32N 37°18' E 008°31'1515.7
2014-Nov-21 11:33N 37°18' E 008°11'1515.2
2014-Nov-21 10:33N 37°18' E 007°52'1514.9
2014-Nov-21 09:33N 37°17' E 007°33'1714.6
2014-Nov-21 08:25N 37°18' E 007°13'12815.5
2014-Nov-21 00:10N 37°12' E 004°32'1115.3
2014-Nov-20 23:28N 37°11' E 004°18'1415.4
2014-Nov-20 22:33N 37°10' E 004°01'3415.9
2014-Nov-20 20:24N 37°05' E 003°18'12715.7
2014-Nov-20 12:18N 36°45' E 000°42'1715.2
2014-Nov-20 11:10N 36°42' E 000°20'27314.6
2014-Nov-19 16:33N 36°01' W 005°14'10 8.7
2014-Nov-19 15:27N 36°08' W 005°22'0 0.1
2014-Nov-19 14:24N 36°08' W 005°22'0 0.1
2014-Nov-19 13:18N 36°08' W 005°22'0 0.0
2014-Nov-19 11:33N 36°08' W 005°22'0 0.1
2014-Nov-19 10:15N 36°08' W 005°22'0 0.0
2014-Nov-19 09:30N 36°08' W 005°22'1 0.5
2014-Nov-19 08:28N 36°08' W 005°22'5 5.0
2014-Nov-19 07:33N 36°04' W 005°21'4 3.9
2014-Nov-19 06:33N 35°60' W 005°20'72215.1
2014-Nov-17 06:34N 32°59' W 019°29'1515.3
2014-Nov-17 05:33N 32°56' W 019°47'1515.4
2014-Nov-17 04:34N 32°52' W 020°05'  
Track history (hours):
 
Tides and Currents Weather Stations Pressure Air Temp Water Temp Dewpoint Dewpoint Depression Visibility Wind Speed Wind Dir Waves Ship Positions

Afric Star

Last reported at 2014-Nov-22 09:21 UTC. Time now 2014-Nov-22 09:53 UTC.
Position N 36°31' E 014°59'.

Length 158 m; draft 7.9 m.

Type: Cargo ship. MMSI: 636013069.

Date/timePositionNaut miles runAvg speedWind from/ knotsBaromVisibWave heightAir tempDewpointWater temp
2014-Nov-22 09:21N 36°31' E 014°59'1315.1
2014-Nov-22 08:31N 36°28' E 014°44'1515.3
2014-Nov-22 07:33N 36°30' E 014°26'1515.5
2014-Nov-22 06:33N 36°33' E 014°07'1515.4
2014-Nov-22 05:34N 36°37' E 013°49'1615.5
2014-Nov-22 04:32N 36°42' E 013°29'15215.2
2014-Nov-21 18:33N 37°30' E 010°29'1615.9
2014-Nov-21 17:32N 37°33' E 010°10'1616.2
2014-Nov-21 16:33N 37°31' E 009°49'1616.2
2014-Nov-21 15:33N 37°27' E 009°29'1615.9
2014-Nov-21 14:32N 37°24' E 009°10'1915.8
2014-Nov-21 13:22N 37°20' E 008°47'1315.9
2014-Nov-21 12:32N 37°18' E 008°31'1515.7
2014-Nov-21 11:33N 37°18' E 008°11'1515.2
2014-Nov-21 10:33N 37°18' E 007°52'1514.9
2014-Nov-21 09:33N 37°17' E 007°33'1714.6
2014-Nov-21 08:25N 37°18' E 007°13'12815.5
2014-Nov-21 00:10N 37°12' E 004°32'1115.3
2014-Nov-20 23:28N 37°11' E 004°18'1415.4
2014-Nov-20 22:33N 37°10' E 004°01'3415.9
2014-Nov-20 20:24N 37°05' E 003°18'12715.7
2014-Nov-20 12:18N 36°45' E 000°42'1715.2
2014-Nov-20 11:10N 36°42' E 000°20'27314.6
2014-Nov-19 16:33N 36°01' W 005°14'10 8.7
2014-Nov-19 15:27N 36°08' W 005°22'0 0.1
2014-Nov-19 14:24N 36°08' W 005°22'0 0.1
2014-Nov-19 13:18N 36°08' W 005°22'0 0.0
2014-Nov-19 11:33N 36°08' W 005°22'0 0.1
2014-Nov-19 10:15N 36°08' W 005°22'0 0.0
2014-Nov-19 09:30N 36°08' W 005°22'1 0.5
2014-Nov-19 08:28N 36°08' W 005°22'5 5.0
2014-Nov-19 07:33N 36°04' W 005°21'4 3.9
2014-Nov-19 06:33N 35°60' W 005°20'72215.1
2014-Nov-17 06:34N 32°59' W 019°29'1515.3
2014-Nov-17 05:33N 32°56' W 019°47'1515.4
2014-Nov-17 04:34N 32°52' W 020°05'  

Dump ship's entire track history